UTDLUTDD

Guest
Details From UTDL - KHUDZHAND
To UTDD - DUSHANBE
Flight Number -
Tags generated
Created
Modified
Stats Distance 109 nm / 202 km
Max Altitude 10,000 ft / 3,048 m
Waypoints 3
Social Downloads 3
Likes 0
Share VATSIM

Download

Looking for another format? Having issues loading an existing format? Contact us
Advertisement - Login to hide

Notes

Basic altitude profile: - Ascent Rate: 2500ft/min - Ascent Speed: 250kts - Cruise Altitude: 35000ft - Cruise Speed: 420kts - Descent Rate: 1500ft/min - Descent Speed: 250kts Options: - Use NATs: yes - Use PACOTS: yes - Use low airways: yes - Use high airways: yes

Route

UTDL ZENAL UTDD

ID Type Via Altitude Latitude Longitude Leg Dist Tot Dist Heading (true) Name
O UTDL APT - 0 ft / 0 m 40.21540˚ 69.69471˚ - 0 nm - KHUDZHAND
ZENAL FIX - 10,000 ft / 3,048 m 39.37000˚ 69.11667˚ 57 nm 57 nm 208° / 208° -
O UTDD APT - 0 ft / 0 m 38.54349˚ 68.82464˚ 51 nm 108 nm 195° / 195° DUSHANBE

Altitude Profile

Advertisement - Login to hide

UTDL

Details ICAO UTDL (LBD)
Name KHUDZHAND
Region Tajikistan, Turkmenistan and Uzbekistan
Timezone Asia/Dushanbe (UTC+5.0)
Stats Elevation 1,450 ft / 442 m (AMSL)
Location 40.215396° 69.694708°
Runways 1
Magnetic Variation 4.965° E

METAR

UTDL 181300Z 08007MPS 5000 FU NSC 06/M07 Q1027 R08/CLRD// NOSIG RMK QFE731/0974

Decode

TAF

Not found

Departure Runways

ID Width Length Bearing (true) Bearing (mag) Surface Threshold Offset Overrun Length
08 164 ft / 50 m 10,427 ft / 3,178 m 82.16° 77.20° Asphalt 975 ft / 297 m 210 ft / 64 m
26 164 ft / 50 m 10,427 ft / 3,178 m 262.18° 257.22° Asphalt 975 ft / 297 m 250 ft / 76 m

UTDD

Details ICAO UTDD (DYU)
Name DUSHANBE
Region Tajikistan, Turkmenistan and Uzbekistan
Timezone Asia/Dushanbe (UTC+5.0)
Stats Elevation 2,575 ft / 785 m (AMSL)
Location 38.543486° 68.824637°
Runways 1
Magnetic Variation 4.445° E

METAR

UTDD 181300Z 10005MPS 9999 NSC 10/00 Q1026 R09/D NOSIG RMK QFE700/0934

Decode

TAF

TAF TAF UTDD 181200Z 1813/1901 VRB02MPS 4000 BR FU SCT066CB BKN100 TEMPO 1813/1901 09005MPS 2100 BR FU

Decode

Destination Runways

ID Width Length Bearing (true) Bearing (mag) Surface Threshold Offset Overrun Length
09 147 ft / 45 m 10,157 ft / 3,096 m 90.06° 85.61° Asphalt 0 ft / 0 m 0 ft / 0 m
27 147 ft / 45 m 10,157 ft / 3,096 m 270.08° 265.63° Asphalt 1,335 ft / 407 m 0 ft / 0 m